Weather reports worldwide

Advertisment
Cairngorm, United Kingdom (3065): temperature & dewpoint: 11.09.2019 12:00:00 - 17.09.2019 12:00:00 (BST)Cairngorm, United Kingdom (3065): wind speed & gusts: 11.09.2019 12:00:00 - 17.09.2019 12:00:00 (BST)Cairngorm, United Kingdom (3065): wind direction: 11.09.2019 12:00:00 - 17.09.2019 12:00:00 (BST)
Date & Time tt [°C] td [°C] ff [km/h] ff [kn] fx [km/h] fx [kn] dd
17.09.2019 12:00:00 0,7 0,7 61 33 72 39 NW
17.09.2019 11:00:00 0,1 0,1 48 26 65 35 WNW
17.09.2019 10:00:00 0,0 0,0 52 28 74 40 WNW
17.09.2019 09:00:00 -0,6 -0,6 67 36 81 44 WNW
17.09.2019 08:00:00 -1,1 -1,1 78 42 93 50 WNW
17.09.2019 07:00:00 -0,9 -1,0 74 40 98 53 WNW
17.09.2019 06:00:00 -1,4 -1,4 91 49 104 56 WNW
17.09.2019 05:00:00 -0,6 -0,6 85 46 100 54 WNW
17.09.2019 04:00:00 0,0 0,0 74 40 98 53 WNW
17.09.2019 03:00:00 0,0 -0,1 83 45 107 58 WNW
17.09.2019 02:00:00 0,1 0,0 94 51 106 57 WNW
17.09.2019 01:00:00 -0,2 -0,2 85 46 113 61 WNW
17.09.2019 00:00:00 0,6 0,6 94 51 115 62 WNW
16.09.2019 23:00:00 1,3 1,3 91 49 102 55 WNW
16.09.2019 22:00:00 1,3 1,3 81 44 96 52 WNW
16.09.2019 21:00:00 1,5 1,5 83 45 102 55 WNW
16.09.2019 20:00:00 2,1 2,1 91 49 115 62 WNW
16.09.2019 19:00:00 2,6 2,5 83 45 98 53 WNW
16.09.2019 18:00:00 2,8 2,8 80 43 102 55 WNW
16.09.2019 17:00:00 2,7 2,7 76 41 107 58 W
16.09.2019 16:00:00 2,7 2,7 72 39 98 53 W
16.09.2019 15:00:00 2,6 2,6 74 40 94 51 WNW
16.09.2019 14:00:00 2,5 2,5 72 39 96 52 W
16.09.2019 13:00:00 2,5 2,4 78 42 100 54 WNW
16.09.2019 12:00:00 2,3 2,3 63 34 85 46 W
16.09.2019 11:00:00 1,9 1,9 68 37 93 50 W
16.09.2019 10:00:00 1,4 1,2 70 38 89 48 W
16.09.2019 09:00:00 1,0 1,0 70 38 87 47 W
16.09.2019 08:00:00 0,5 0,5 72 39 81 44 W
16.09.2019 07:00:00 0,6 0,6 68 37 80 43 W
16.09.2019 06:00:00 0,9 0,9 65 35 85 46 W
16.09.2019 05:00:00 0,9 0,9 68 37 81 44 W
16.09.2019 04:00:00 1,3 1,3 67 36 81 44 W
16.09.2019 03:00:00 0,7 0,7 61 33 76 41 W
16.09.2019 02:00:00 1,0 1,0 63 34 78 42 WNW
16.09.2019 01:00:00 0,2 0,2 59 32 76 41 WNW
16.09.2019 00:00:00 0,1 0,0 67 36 81 44 WNW
15.09.2019 23:00:00 0,7 0,4 63 34 72 39 WNW
15.09.2019 22:00:00 0,8 0,5 48 26 63 34 WNW
15.09.2019 21:00:00 0,9 0,8 52 28 76 41 WNW
15.09.2019 20:00:00 1,4 0,9 63 34 78 42 W
15.09.2019 19:00:00 1,8 1,2 65 35 74 40 W
15.09.2019 18:00:00 2,8 2,6 59 32 83 45 WNW
15.09.2019 17:00:00 3,6 3,5 63 34 87 47 WNW
15.09.2019 16:00:00 2,7 2,6 63 34 89 48 WNW
15.09.2019 15:00:00 1,8 1,8 59 32 80 43 WNW
15.09.2019 14:00:00 2,8 2,8 52 28 85 46 W
15.09.2019 13:00:00 2,2 2,2 72 39 107 58 W
15.09.2019 12:00:00 1,5 1,5 74 40 107 58 W
15.09.2019 11:00:00 1,3 1,3 80 43 111 60 WNW
15.09.2019 10:00:00 0,8 0,8 83 45 119 64 W
15.09.2019 09:00:00 0,5 0,5 85 46 133 72 W
15.09.2019 08:00:00 0,4 0,4 102 55 124 67 WNW
15.09.2019 07:00:00 0,6 0,6 74 40 102 55 W
15.09.2019 06:00:00 0,6 0,6 81 44 124 67 W
15.09.2019 05:00:00 1,0 1,0 100 54 124 67 W
15.09.2019 04:00:00 1,0 1,0 98 53 139 75 W
15.09.2019 03:00:00 1,7 1,6 106 57 144 78 W
15.09.2019 02:00:00 1,9 1,8 104 56 130 70 W
15.09.2019 01:00:00 2,6 2,6 104 56 143 77 W
15.09.2019 00:00:00 2,3 2,3 111 60 144 78 W
14.09.2019 23:00:00 3,1 3,0 94 51 139 75 W
14.09.2019 22:00:00 4,8 4,7 93 50 120 65 W
14.09.2019 21:00:00 6,6 6,6 91 49 137 74 W
14.09.2019 20:00:00 8,1 8,1 96 52 148 80 W
14.09.2019 19:00:00 8,2 8,2 98 53 165 89 W
14.09.2019 18:00:00 8,2 8,2 109 59 180 97 W
14.09.2019 17:00:00 8,5 8,5 128 69 169 91 WSW
14.09.2019 16:00:00 8,1 8,1 115 62 174 94 WSW
14.09.2019 15:00:00 8,4 8,4 133 72 169 91 WSW
14.09.2019 14:00:00 7,9 7,9 117 63 157 85 WSW
14.09.2019 13:00:00 6,2 6,2 96 52 131 71 SW
14.09.2019 12:00:00 5,2 5,2 83 45 126 68 SW
14.09.2019 11:00:00 5,7 5,6 98 53 133 72 SW
14.09.2019 10:00:00 5,5 5,5 96 52 131 71 SW
14.09.2019 09:00:00 4,3 4,3 91 49 135 73 SW
14.09.2019 08:00:00 4,8 3,8 94 51 137 74 SW
14.09.2019 07:00:00 3,9 1,2 93 50 124 67 SSW
14.09.2019 06:00:00 4,0 1,5 80 43 111 60 SW
14.09.2019 05:00:00 5,6 0,6 74 40 102 55 SW
14.09.2019 04:00:00 3,6 1,9 63 34 98 53 SW
14.09.2019 03:00:00 5,1 0,5 59 32 85 46 WSW
14.09.2019 02:00:00 4,2 1,3 72 39 94 51 W
14.09.2019 01:00:00 3,6 1,8 72 39 93 50 W
14.09.2019 00:00:00 3,3 2,5 50 27 80 43 WSW
13.09.2019 23:00:00 3,4 3,0 50 27 81 44 W
13.09.2019 22:00:00 3,7 2,5 68 37 91 49 W
13.09.2019 21:00:00 3,1 2,9 57 31 87 47 WSW
13.09.2019 20:00:00 3,1 2,5 55 30 83 45 WSW
13.09.2019 19:00:00 3,3 2,7 46 25 80 43 W
13.09.2019 18:00:00 3,8 2,3 59 32 87 47 W
13.09.2019 17:00:00 4,1 2,1 52 28 78 42 W
13.09.2019 16:00:00 4,1 1,9 59 32 93 50 W
13.09.2019 15:00:00 4,9 3,3 54 29 89 48 W
13.09.2019 14:00:00 4,2 3,3 65 35 89 48 W
13.09.2019 13:00:00 3,8 3,3 54 29 80 43 W
13.09.2019 12:00:00 3,8 3,4 55 30 85 46 W
13.09.2019 11:00:00 3,0 2,9 57 31 98 53 W
13.09.2019 10:00:00 2,1 2,1 67 36 93 50 W
13.09.2019 09:00:00 1,7 1,7 65 35 87 47 W
13.09.2019 08:00:00 1,4 1,4 74 40 98 53 W
13.09.2019 07:00:00 1,3 1,2 72 39 98 53 W
13.09.2019 06:00:00 1,4 1,4 63 34 94 51 W
13.09.2019 05:00:00 1,6 1,6 76 41 93 50 W
13.09.2019 04:00:00 1,8 1,8 67 36 89 48 W
13.09.2019 03:00:00 1,7 1,7 74 40 94 51 W
13.09.2019 02:00:00 1,8 1,8 70 38 93 50 W
13.09.2019 01:00:00 1,5 1,5 72 39 100 54 W
13.09.2019 00:00:00 2,0 2,0 74 40 94 51 W
12.09.2019 23:00:00 1,9 1,9 55 30 80 43 W
12.09.2019 22:00:00 1,8 1,8 54 29 78 42 W
12.09.2019 21:00:00 2,2 2,1 63 34 83 45 W
12.09.2019 20:00:00 2,5 2,5 55 30 80 43 W
12.09.2019 19:00:00 3,4 3,4 54 29 80 43 W
12.09.2019 18:00:00 4,6 4,6 61 33 81 44 W
12.09.2019 17:00:00 4,2 4,1 57 31 72 39 WNW
12.09.2019 16:00:00 4,7 4,7 59 32 94 51 W
12.09.2019 15:00:00 4,2 4,2 63 34 91 49 W
12.09.2019 14:00:00 4,8 4,8 59 32 83 45 W
12.09.2019 13:00:00 4,8 4,7 67 36 100 54 W
12.09.2019 12:00:00 4,9 4,8 54 29 104 56 W
12.09.2019 11:00:00 4,6 4,6 61 33 107 58 W
12.09.2019 10:00:00 4,9 4,9 57 31 91 49 WSW
12.09.2019 09:00:00 4,1 4,1 54 29 93 50 W
12.09.2019 08:00:00 3,9 3,8 68 37 100 54 W
12.09.2019 07:00:00 3,6 3,6 54 29 85 46 W
12.09.2019 06:00:00 3,5 3,5 46 25 87 47 W
12.09.2019 05:00:00 3,7 3,7 54 29 98 53 WSW
12.09.2019 04:00:00 3,8 3,8 68 37 100 54 W
12.09.2019 03:00:00 4,3 4,2 46 25 87 47 W
12.09.2019 02:00:00 4,0 4,0 65 35 98 53 W
12.09.2019 01:00:00 3,8 3,8 70 38 113 61 W
12.09.2019 00:00:00 4,4 4,4 61 33 100 54 W
11.09.2019 23:00:00 4,5 4,5 70 38 107 58 W
11.09.2019 22:00:00 4,1 4,1 74 40 120 65 W
11.09.2019 21:00:00 4,5 4,5 85 46 113 61 W
11.09.2019 20:00:00 4,5 4,5 72 39 111 60 W
11.09.2019 19:00:00 4,3 4,3 72 39 107 58 W
11.09.2019 18:00:00 4,7 4,7 80 43 124 67 W
11.09.2019 17:00:00 4,5 4,5 107 58 128 69 W
11.09.2019 16:00:00 4,7 4,7 85 46 109 59 W
11.09.2019 15:00:00 4,6 4,6 81 44 119 64 W
11.09.2019 14:00:00 4,5 4,5 83 45 126 68 W
11.09.2019 13:00:00 4,3 4,3 85 46 124 67 W
11.09.2019 12:00:00 4,6 4,6 83 45 130 70 W

tt = temperature
td = dewpoint
ff = wind speed
fx = gusts
dd = wind direction

Next stations